Aeroporto :
LOGIN :

Iscrizione | Disclaimer

   EN    FR    IT 

 










Sommario :    VFR   VFR Marginale   IFR   IFR Intensivo   IFR Molto Intensivo
Visibilità : 
Base nubi : 
>= 8 km
>= 3000ft
5 / 8 km
1000 / 3000 ft
1500m / 5 km
500 / 1000 ft
800 / 1500m
200 / 500 ft
< 800m
< 200 ft
Simboli :   Temporali  Nebbia  Neve Forte  Precipitazioni Forti  Vento > 20 kt
SIGMETs :   Varie  Temporali  Ghiacco  Turbolenza  Onda orograficha  Ceneri Vulcaniche






- Altitudine del aeroporto : 106 ft
- Codice IATA : NRN


EDLV - Weeze

ULTIMO METAR :
  • 191620Z 30007KT 260V340 9999 FEW031 SCT048 24/17 Q1014

METARs OBSOLETI :
  • 191550Z 29009KT 260V320 9999 FEW032 SCT049 25/17 Q1014
  • 191520Z 28009KT 9999 BKN046 25/17 Q1013
  • 191450Z 29008KT 250V340 9999 SCT034 25/16 Q1013
  • 191420Z 28008KT 9999 FEW034 25/16 Q1014
  • 191350Z 26009KT 230V310 9999 FEW035 26/16 Q1014

TAF TAF EDLV
Valido dal 19 a 12 ore il 20 a 12 ore UTC


191100Z 1912/2012 26009KT 9999 SCT035
TEMPO 1917/1924 3000 SHRA BKN012CB
BECMG 1918/1921 26003KT
PROB40
TEMPO 2000/2009 3000 BR BKN005
BECMG 2010/2012 27008KT



MetMap, La meteo Aeronautica in un colpo d'occhio ! - Copyright ORBIFLY Dicembre 2007 - Disclaimer

ORBIFLY MET'MAP TEAM :

Programmazione e sviluppo : Alexandra Zaïnal
Concezione : Baudouin d'Aumeries
Supporto tecnico e logistico : Manuel Goepfert
Aiuto : Marc-Olivier Méhu
Aiuto per la traduzione : Arnaldo La Scala




FONTI E CREDITI :

   NOAA